Time;durP1;ratioP1;P1;durP2;ratioP2;P2;SDS_P1;SDS_P2;PMS_P1;PMS_P2;Temp;Humidity;BMP_temperature;BMP_pressure;BME280_temperature;BME280_humidity;BME280_pressure;Samples;Min_cycle;Max_cycle;Signal;HPM_P1;HPM_P2
2021/05/31 00:01:01;;;;;;;2.40;2.10;;;24.00;46.00;;;;;;5007762;28;20306;-87
2021/05/31 00:03:28;;;;;;;2.30;2.03;;;24.00;46.00;;;;;;5000666;28;20274;-87
2021/05/31 00:05:55;;;;;;;2.17;1.90;;;24.00;46.00;;;;;;5005086;28;20223;-87
2021/05/31 00:08:22;;;;;;;2.10;1.87;;;23.90;46.10;;;;;;5004619;28;20227;-84
2021/05/31 00:10:49;;;;;;;2.27;2.07;;;24.00;46.10;;;;;;5005483;28;20215;-84
2021/05/31 00:13:17;;;;;;;2.00;1.80;;;23.90;46.10;;;;;;5005667;28;20233;-84
2021/05/31 00:15:44;;;;;;;2.50;2.30;;;23.90;46.20;;;;;;5004660;28;20231;-84
2021/05/31 00:18:14;;;;;;;2.43;2.10;;;23.90;46.80;;;;;;5004855;28;20849;-86
2021/05/31 00:20:42;;;;;;;1.93;1.83;;;23.80;46.20;;;;;;5002430;28;20220;-87
2021/05/31 00:23:09;;;;;;;2.27;2.07;;;23.90;46.30;;;;;;4990477;28;20219;-87
2021/05/31 00:25:36;;;;;;;2.40;2.13;;;23.80;46.20;;;;;;4992796;28;20220;-88
2021/05/31 00:28:03;;;;;;;2.27;2.07;;;23.80;46.30;;;;;;5006083;28;20216;-86
2021/05/31 00:30:30;;;;;;;2.80;2.20;;;23.80;46.30;;;;;;4989196;28;20211;-87
2021/05/31 00:33:07;;;;;;;2.10;2.00;;;23.80;46.30;;;;;;4989120;28;20231;-86
2021/05/31 00:35:34;;;;;;;1.90;1.80;;;23.80;46.30;;;;;;4986889;28;20220;-86
2021/05/31 00:38:02;;;;;;;2.17;1.97;;;23.80;46.40;;;;;;5009565;28;20599;-83
2021/05/31 00:40:29;;;;;;;2.20;2.00;;;23.80;46.40;;;;;;5000729;28;20720;-83
2021/05/31 00:42:56;;;;;;;2.93;2.27;;;23.70;46.40;;;;;;5009191;28;20234;-83
2021/05/31 00:45:23;;;;;;;2.20;2.00;;;23.70;46.40;;;;;;4997472;28;20605;-84
2021/05/31 00:47:51;;;;;;;2.23;2.03;;;23.70;46.40;;;;;;5006092;28;20229;-83
2021/05/31 00:50:19;;;;;;;1.97;1.80;;;23.70;46.50;;;;;;5002462;28;20281;-85
2021/05/31 00:52:46;;;;;;;2.30;2.10;;;23.70;46.60;;;;;;5009826;28;20773;-85
2021/05/31 00:55:13;;;;;;;2.60;1.97;;;23.70;46.60;;;;;;4993095;28;20231;-86
2021/05/31 00:57:43;;;;;;;2.13;1.93;;;23.70;46.60;;;;;;5004403;28;20222;-86
2021/05/31 01:00:11;;;;;;;2.10;1.90;;;23.70;46.60;;;;;;4990130;28;20761;-86
2021/05/31 01:02:38;;;;;;;2.60;2.00;;;23.70;46.70;;;;;;5003543;28;20224;-87
2021/05/31 01:05:06;;;;;;;2.23;2.03;;;23.70;46.60;;;;;;5005765;28;20234;-86
2021/05/31 01:07:37;;;;;;;2.40;2.20;;;23.60;46.70;;;;;;4984540;28;20239;-85
2021/05/31 01:10:16;;;;;;;2.73;2.20;;;23.60;46.60;;;;;;5005736;28;20230;-86
2021/05/31 01:13:08;;;;;;;2.20;2.10;;;23.70;46.70;;;;;;4983548;28;20434;-86
2021/05/31 01:15:47;;;;;;;2.10;1.90;;;23.60;46.70;;;;;;4979889;28;20559;-87
2021/05/31 01:18:26;;;;;;;2.37;2.17;;;23.60;46.80;;;;;;5001635;28;20494;-86
2021/05/31 01:21:21;;;;;;;3.70;2.07;;;23.60;46.80;;;;;;4974615;28;20218;-86
2021/05/31 01:24:01;;;;;;;2.40;2.20;;;23.60;46.80;;;;;;4990331;28;21423;-86
2021/05/31 01:26:41;;;;;;;2.30;2.10;;;23.60;46.80;;;;;;4991420;28;20225;-85
2021/05/31 01:29:10;;;;;;;2.13;1.97;;;23.60;46.80;;;;;;4969165;28;20236;-85
2021/05/31 01:31:54;;;;;;;2.40;2.20;;;23.50;46.80;;;;;;4983686;28;20224;-87
2021/05/31 01:34:26;;;;;;;2.60;2.30;;;23.50;46.80;;;;;;4977601;28;20220;-85
2021/05/31 01:36:59;;;;;;;2.23;1.90;;;23.50;46.80;;;;;;4979899;28;20225;-85
2021/05/31 01:39:31;;;;;;;2.40;2.20;;;23.50;46.90;;;;;;4977291;28;20224;-86
2021/05/31 01:41:59;;;;;;;2.40;2.20;;;23.50;46.90;;;;;;4987763;28;20224;-85
2021/05/31 01:44:26;;;;;;;2.57;2.37;;;23.40;46.90;;;;;;4986305;28;20244;-87
2021/05/31 01:46:54;;;;;;;2.40;2.20;;;23.50;47.00;;;;;;4969356;28;20220;-85
2021/05/31 01:49:21;;;;;;;2.30;2.10;;;23.40;47.00;;;;;;4984201;28;20306;-85
2021/05/31 01:51:50;;;;;;;2.33;2.13;;;23.50;47.00;;;;;;4973048;28;20224;-85
2021/05/31 01:54:23;;;;;;;2.60;2.40;;;23.40;47.00;;;;;;4982693;28;20259;-85
2021/05/31 01:56:50;;;;;;;2.63;2.43;;;23.40;47.00;;;;;;4981821;28;20397;-85
2021/05/31 01:59:18;;;;;;;2.20;2.00;;;23.40;47.00;;;;;;4977997;28;20252;-86
2021/05/31 02:01:47;;;;;;;2.27;2.10;;;23.40;47.10;;;;;;4973774;28;20248;-85
2021/05/31 02:04:14;;;;;;;2.27;1.97;;;23.40;47.10;;;;;;4981727;28;20439;-87
2021/05/31 02:06:42;;;;;;;2.50;2.30;;;23.40;47.10;;;;;;4973972;28;20227;-88
2021/05/31 02:09:09;;;;;;;2.53;2.27;;;23.30;47.00;;;;;;4981034;28;20223;-89
2021/05/31 02:11:42;;;;;;;2.03;1.83;;;23.30;47.10;;;;;;4968599;28;20244;-89
2021/05/31 02:14:28;;;;;;;3.00;2.43;;;23.30;47.10;;;;;;4976048;28;20244;-88
2021/05/31 02:17:14;;;;;;;2.77;2.53;;;23.30;47.10;;;;;;4958887;28;20487;-88
2021/05/31 02:19:43;;;;;;;3.00;2.10;;;23.30;47.20;;;;;;4965085;28;20228;-85
2021/05/31 02:22:12;;;;;;;3.40;2.40;;;23.30;47.20;;;;;;4984819;28;20231;-84
2021/05/31 02:24:40;;;;;;;2.40;2.20;;;23.30;47.90;;;;;;4982038;28;20259;-84
2021/05/31 02:27:07;;;;;;;3.73;2.20;;;23.30;47.20;;;;;;4995458;28;20240;-84
2021/05/31 02:29:36;;;;;;;2.63;2.43;;;23.30;47.20;;;;;;5004418;28;20610;-85
2021/05/31 02:32:06;;;;;;;2.70;2.40;;;23.30;47.30;;;;;;5001019;28;20223;-84
2021/05/31 02:34:34;;;;;;;2.60;2.10;;;23.20;47.20;;;;;;4995095;28;20449;-85
2021/05/31 02:37:01;;;;;;;3.30;2.43;;;23.30;47.30;;;;;;5002911;28;20622;-85
2021/05/31 02:39:28;;;;;;;3.03;2.40;;;23.20;47.20;;;;;;5006858;28;20231;-85
2021/05/31 02:41:55;;;;;;;2.53;2.33;;;23.20;47.30;;;;;;5001321;28;20255;-85
2021/05/31 02:44:22;;;;;;;2.50;2.30;;;23.20;47.30;;;;;;5005249;28;20231;-84
2021/05/31 02:46:48;;;;;;;2.77;2.20;;;23.20;47.30;;;;;;5000190;28;20231;-84
2021/05/31 02:49:15;;;;;;;2.30;2.10;;;23.20;47.40;;;;;;5002597;28;20254;-84
2021/05/31 02:51:44;;;;;;;2.80;2.50;;;23.20;47.40;;;;;;4999499;28;20531;-84
2021/05/31 02:54:12;;;;;;;3.33;2.63;;;23.20;47.40;;;;;;5005603;28;20250;-85
2021/05/31 02:56:40;;;;;;;3.27;2.40;;;23.20;47.40;;;;;;4998162;28;20220;-85
2021/05/31 02:59:07;;;;;;;2.17;2.00;;;23.10;47.40;;;;;;4992322;28;20231;-85
2021/05/31 03:01:34;;;;;;;2.87;2.33;;;23.20;47.50;;;;;;5003501;28;20291;-84
2021/05/31 03:04:02;;;;;;;2.60;2.40;;;23.10;47.40;;;;;;5002864;28;20769;-85
2021/05/31 03:06:29;;;;;;;3.00;2.50;;;23.10;47.40;;;;;;4995840;28;20228;-83
2021/05/31 03:08:56;;;;;;;2.97;2.57;;;23.10;47.50;;;;;;5001456;28;20227;-87
2021/05/31 03:11:23;;;;;;;2.80;2.50;;;23.10;47.50;;;;;;4987449;28;20319;-86
2021/05/31 03:13:50;;;;;;;2.67;2.47;;;23.10;47.50;;;;;;5002866;28;20282;-86
2021/05/31 03:16:16;;;;;;;2.60;2.40;;;23.10;47.50;;;;;;4999724;28;20574;-86
2021/05/31 03:18:43;;;;;;;3.30;2.83;;;23.10;47.50;;;;;;5004505;28;20231;-84
2021/05/31 03:21:10;;;;;;;3.07;2.50;;;23.10;47.60;;;;;;4987851;28;20235;-85
2021/05/31 03:23:42;;;;;;;2.90;2.70;;;23.10;47.60;;;;;;5001373;28;20718;-85
2021/05/31 03:26:09;;;;;;;3.00;2.70;;;23.10;47.60;;;;;;5003750;28;20242;-86
2021/05/31 03:28:36;;;;;;;3.10;2.80;;;23.00;47.60;;;;;;4984499;28;20224;-86
2021/05/31 03:31:05;;;;;;;2.70;2.50;;;23.00;47.60;;;;;;5003759;28;20222;-86
2021/05/31 03:33:32;;;;;;;2.90;2.70;;;23.00;47.70;;;;;;4982689;28;20221;-86
2021/05/31 03:35:59;;;;;;;2.70;2.50;;;23.00;47.70;;;;;;4986828;28;20734;-87
2021/05/31 03:38:26;;;;;;;3.73;2.80;;;23.00;47.70;;;;;;4985202;28;20228;-87
2021/05/31 03:40:53;;;;;;;2.93;2.63;;;23.00;47.70;;;;;;5001449;28;20247;-87
2021/05/31 03:43:20;;;;;;;2.63;2.43;;;23.00;47.70;;;;;;4985991;28;20267;-86
2021/05/31 03:45:46;;;;;;;5.03;2.83;;;23.00;47.70;;;;;;5005291;28;20461;-85
2021/05/31 03:48:13;;;;;;;3.10;2.67;;;23.00;47.70;;;;;;5001508;28;20237;-85
2021/05/31 03:50:40;;;;;;;3.00;2.73;;;23.00;47.80;;;;;;4998618;28;20223;-84
2021/05/31 03:53:07;;;;;;;2.93;2.70;;;23.00;47.80;;;;;;5006938;28;20244;-85
2021/05/31 03:55:34;;;;;;;2.77;2.57;;;23.00;47.80;;;;;;5009055;28;20224;-85
2021/05/31 03:58:01;;;;;;;2.73;2.37;;;22.90;47.70;;;;;;4989168;28;20643;-84
2021/05/31 04:00:28;;;;;;;2.87;2.60;;;22.90;47.80;;;;;;5008850;28;20215;-84
2021/05/31 04:02:55;;;;;;;3.27;2.97;;;22.90;47.80;;;;;;5004758;28;20227;-84
2021/05/31 04:05:25;;;;;;;3.77;2.80;;;22.90;47.80;;;;;;5005969;28;20235;-88
2021/05/31 04:13:23;;;;;;;2.87;2.67;;;22.90;48.40;;;;;;4995148;28;20233;-86
2021/05/31 04:15:50;;;;;;;4.23;3.00;;;22.90;47.80;;;;;;5003194;28;20219;-86
2021/05/31 04:18:17;;;;;;;2.57;2.37;;;22.90;47.80;;;;;;5009249;28;20235;-86
2021/05/31 04:20:44;;;;;;;3.20;2.90;;;22.90;47.80;;;;;;5002340;28;20750;-86
2021/05/31 04:23:11;;;;;;;2.83;2.63;;;22.90;47.80;;;;;;5008319;28;20777;-86
2021/05/31 04:25:38;;;;;;;2.93;2.73;;;22.90;47.80;;;;;;5002245;28;20239;-86
2021/05/31 04:28:05;;;;;;;2.87;2.60;;;22.90;47.80;;;;;;4991415;28;20215;-85
2021/05/31 04:30:32;;;;;;;2.50;2.30;;;22.80;47.80;;;;;;4990768;28;20270;-83
2021/05/31 04:32:59;;;;;;;3.30;2.60;;;22.80;47.80;;;;;;5009875;28;20239;-85
2021/05/31 04:35:25;;;;;;;2.60;2.40;;;22.80;47.80;;;;;;5008557;28;20253;-84
2021/05/31 04:37:56;;;;;;;2.80;2.60;;;22.90;47.80;;;;;;5007170;28;20687;-88
2021/05/31 04:40:23;;;;;;;2.97;2.67;;;22.90;47.80;;;;;;5002786;28;20231;-80
2021/05/31 04:42:50;;;;;;;2.90;2.70;;;22.90;47.80;;;;;;4995755;28;20235;-80
2021/05/31 04:45:17;;;;;;;3.10;2.80;;;22.80;47.80;;;;;;4996007;28;20235;-82
2021/05/31 04:47:43;;;;;;;3.10;2.80;;;22.80;47.80;;;;;;4999968;28;20216;-80
2021/05/31 04:50:12;;;;;;;3.23;2.67;;;22.80;47.80;;;;;;4998559;28;20223;-80
2021/05/31 04:52:41;;;;;;;2.87;2.67;;;22.80;47.80;;;;;;5006162;28;20219;-81
2021/05/31 04:55:14;;;;;;;4.70;2.60;;;22.80;47.80;;;;;;5001460;28;20220;-80
2021/05/31 04:57:42;;;;;;;3.37;2.97;;;22.80;47.80;;;;;;5004058;28;20227;-81
2021/05/31 05:00:09;;;;;;;3.40;2.90;;;22.80;47.80;;;;;;4995730;28;20263;-81
2021/05/31 05:02:36;;;;;;;3.43;3.10;;;22.80;47.80;;;;;;5001341;28;20597;-79
2021/05/31 05:05:04;;;;;;;3.37;3.07;;;22.80;47.90;;;;;;5005500;28;20761;-79
2021/05/31 05:07:31;;;;;;;3.40;3.00;;;22.80;47.80;;;;;;5000820;28;20225;-81
2021/05/31 05:09:57;;;;;;;4.17;3.57;;;22.80;47.80;;;;;;4979749;28;20227;-79
2021/05/31 05:12:25;;;;;;;3.60;2.83;;;22.80;47.90;;;;;;4994847;28;20419;-80
2021/05/31 05:14:52;;;;;;;3.90;2.90;;;22.80;48.00;;;;;;5003713;28;20426;-78
2021/05/31 05:17:19;;;;;;;3.97;3.13;;;22.80;47.90;;;;;;5003839;28;20220;-80
2021/05/31 05:19:46;;;;;;;4.20;2.97;;;22.80;48.00;;;;;;4994982;28;20224;-81
2021/05/31 05:22:12;;;;;;;4.60;3.10;;;22.80;48.00;;;;;;4989331;28;20618;-80
2021/05/31 05:24:40;;;;;;;3.80;3.50;;;22.80;48.10;;;;;;5004074;28;20239;-81
2021/05/31 05:27:07;;;;;;;4.83;3.20;;;22.80;48.10;;;;;;4998999;28;20238;-77
2021/05/31 05:29:34;;;;;;;3.53;3.23;;;22.80;48.10;;;;;;5000426;28;20231;-78
2021/05/31 05:32:00;;;;;;;5.30;3.33;;;22.80;48.10;;;;;;4998582;28;20229;-77
2021/05/31 05:34:28;;;;;;;3.50;3.20;;;22.80;48.20;;;;;;5002509;28;20238;-78
2021/05/31 05:37:09;;;;;;;4.03;3.00;;;22.80;48.20;;;;;;4998593;28;20641;-80
2021/05/31 05:42:36;;;;;;;3.40;3.10;;;22.80;48.20;;;;;;4992566;28;20554;-80
2021/05/31 05:45:48;;;;;;;10.90;3.77;;;22.80;48.30;;;;;;4975322;28;20395;-78
2021/05/31 05:47:56;;;;;;;10.57;3.40;;;22.80;48.80;;;;;;4983128;28;20424;-82
2021/05/31 05:50:24;;;;;;;6.57;3.23;;;22.90;49.50;;;;;;4990396;28;20215;-80
2021/05/31 05:52:51;;;;;;;8.20;3.60;;;22.90;49.80;;;;;;5002966;28;20816;-82
2021/05/31 05:55:18;;;;;;;7.77;3.53;;;23.00;49.90;;;;;;4999523;28;20659;-79
2021/05/31 05:57:45;;;;;;;6.97;3.53;;;23.10;50.30;;;;;;5004074;28;20318;-78
2021/05/31 06:00:24;;;;;;;5.37;2.90;;;23.10;50.20;;;;;;4997831;28;20585;-79
2021/05/31 06:02:53;;;;;;;6.60;3.43;;;23.20;50.10;;;;;;5004242;28;20219;-81
2021/05/31 06:05:20;;;;;;;5.30;3.23;;;23.30;50.10;;;;;;4999993;28;20232;-81
2021/05/31 06:07:47;;;;;;;6.90;3.10;;;23.30;50.70;;;;;;5007386;28;20220;-80
2021/05/31 06:10:16;;;;;;;6.47;3.30;;;23.40;50.20;;;;;;5003051;28;20617;-82
2021/05/31 06:12:43;;;;;;;6.90;3.07;;;23.40;50.20;;;;;;5005641;28;20224;-83
2021/05/31 06:15:11;;;;;;;6.00;3.23;;;23.50;50.30;;;;;;5002505;28;20709;-82
2021/05/31 06:17:38;;;;;;;5.90;2.87;;;23.60;50.10;;;;;;5008208;28;24423;-82
2021/05/31 06:20:07;;;;;;;5.33;3.20;;;23.60;50.00;;;;;;5003963;28;20235;-81
2021/05/31 06:22:39;;;;;;;5.13;2.70;;;23.60;50.00;;;;;;5007489;28;20242;-81
2021/05/31 06:25:09;;;;;;;3.20;2.90;;;23.70;49.80;;;;;;5008157;28;20622;-83
2021/05/31 06:27:43;;;;;;;3.70;3.03;;;23.80;50.10;;;;;;5009431;28;20231;-83
2021/05/31 06:30:10;;;;;;;4.13;2.90;;;23.90;50.60;;;;;;5008748;28;20351;-85
2021/05/31 06:32:37;;;;;;;5.83;3.37;;;23.90;50.80;;;;;;5006025;28;20231;-82
2021/05/31 06:35:05;;;;;;;5.77;2.80;;;24.00;51.00;;;;;;5005575;28;20322;-88
2021/05/31 06:37:38;;;;;;;4.27;2.90;;;24.10;50.90;;;;;;4974201;28;20219;-86
2021/05/31 06:40:10;;;;;;;3.50;3.17;;;24.20;50.90;;;;;;4985832;28;20239;-81
2021/05/31 06:42:46;;;;;;;6.50;3.30;;;24.20;50.90;;;;;;4990321;28;20243;-86
2021/05/31 06:45:20;;;;;;;10.60;6.50;;;24.30;50.80;;;;;;5004027;28;20247;-82
2021/05/31 06:47:48;;;;;;;9.77;7.60;;;24.30;49.90;;;;;;5003949;28;20792;-81
2021/05/31 06:50:16;;;;;;;11.50;7.10;;;24.20;48.60;;;;;;5005057;28;20424;-78
2021/05/31 06:52:44;;;;;;;13.30;7.53;;;24.20;48.40;;;;;;5006050;28;20226;-83
2021/05/31 06:55:13;;;;;;;11.07;7.50;;;24.10;47.90;;;;;;4991484;28;20395;-84
2021/05/31 06:57:41;;;;;;;11.93;7.80;;;24.10;49.20;;;;;;4984691;28;20231;-84
2021/05/31 07:00:12;;;;;;;12.13;7.67;;;24.10;49.00;;;;;;4988397;28;20258;-83
2021/05/31 07:02:39;;;;;;;13.63;7.20;;;24.00;48.60;;;;;;5001953;28;20692;-87
2021/05/31 07:05:08;;;;;;;14.03;7.17;;;23.90;48.80;;;;;;4988306;28;20273;-85
2021/05/31 07:07:36;;;;;;;10.97;6.57;;;24.00;49.00;;;;;;5002064;28;20253;-80
2021/05/31 07:10:08;;;;;;;13.83;6.80;;;24.00;48.80;;;;;;5003682;28;20219;-81
2021/05/31 07:12:36;;;;;;;18.07;7.07;;;23.90;48.50;;;;;;5009118;28;20254;-90
2021/05/31 07:15:05;;;;;;;14.57;6.87;;;24.00;48.60;;;;;;4997356;28;20237;-95
2021/05/31 07:17:36;;;;;;;11.03;6.57;;;24.00;48.50;;;;;;5004467;28;20244;-95
2021/05/31 07:20:09;;;;;;;11.67;6.93;;;24.10;48.50;;;;;;5003338;28;20249;-90
2021/05/31 07:22:37;;;;;;;11.97;5.77;;;24.20;48.20;;;;;;4983148;28;20305;-86
2021/05/31 07:25:06;;;;;;;10.67;6.43;;;24.20;48.00;;;;;;5007642;28;20459;-86
2021/05/31 07:27:36;;;;;;;15.53;7.47;;;24.30;48.10;;;;;;5007528;28;20433;-85
2021/05/31 07:30:07;;;;;;;22.93;7.07;;;24.30;48.90;;;;;;5010781;28;20258;-83
2021/05/31 07:32:39;;;;;;;10.80;6.83;;;24.40;48.60;;;;;;5005346;28;20212;-84
2021/05/31 07:35:08;;;;;;;9.67;6.53;;;24.50;48.40;;;;;;4998417;28;20648;-83
2021/05/31 07:37:37;;;;;;;13.03;7.47;;;24.50;47.80;;;;;;5008009;28;20243;-84
2021/05/31 07:40:07;;;;;;;10.63;6.77;;;24.60;47.40;;;;;;5010516;28;20237;-90
2021/05/31 07:42:45;;;;;;;9.03;7.40;;;24.60;47.40;;;;;;4981457;28;20314;-82
2021/05/31 07:45:13;;;;;;;7.50;6.40;;;24.60;47.20;;;;;;4998459;28;20406;-83
2021/05/31 07:47:42;;;;;;;9.63;7.43;;;24.60;47.10;;;;;;5007375;28;20221;-80
2021/05/31 07:50:14;;;;;;;12.43;6.53;;;24.60;47.20;;;;;;5012722;28;20241;-86
2021/05/31 07:52:51;;;;;;;9.90;6.87;;;24.70;47.40;;;;;;5006536;28;20613;-86
2021/05/31 07:55:18;;;;;;;7.93;5.77;;;24.70;47.50;;;;;;4987171;28;21014;-82
2021/05/31 07:57:46;;;;;;;8.47;5.80;;;24.80;47.40;;;;;;5000267;28;20226;-89
2021/05/31 08:00:18;;;;;;;7.20;6.23;;;24.80;46.70;;;;;;5009817;28;20305;-86
2021/05/31 08:02:48;;;;;;;6.27;5.67;;;24.70;46.20;;;;;;5000919;28;21474;-85
2021/05/31 08:05:15;;;;;;;9.53;5.67;;;24.70;46.00;;;;;;4987205;28;20235;-83
2021/05/31 08:07:44;;;;;;;7.60;5.27;;;24.70;46.70;;;;;;4997119;28;20234;-82
2021/05/31 08:10:13;;;;;;;10.20;5.47;;;24.70;46.80;;;;;;4987265;28;20763;-84
2021/05/31 08:12:40;;;;;;;7.70;5.40;;;24.80;46.80;;;;;;4997112;28;20362;-81
2021/05/31 08:15:08;;;;;;;8.40;5.13;;;24.80;46.40;;;;;;4983834;28;20306;-83
2021/05/31 08:17:36;;;;;;;7.13;4.93;;;24.80;46.40;;;;;;5000888;28;20223;-84
2021/05/31 08:20:06;;;;;;;8.37;4.80;;;24.80;46.60;;;;;;5001980;28;20589;-82
2021/05/31 08:22:33;;;;;;;6.67;4.83;;;24.80;46.50;;;;;;4997279;28;20488;-82
2021/05/31 08:25:02;;;;;;;8.17;4.50;;;24.90;46.50;;;;;;5007622;28;20226;-83
2021/05/31 08:27:29;;;;;;;6.67;5.10;;;24.90;46.50;;;;;;5001017;28;20232;-79
2021/05/31 08:29:56;;;;;;;9.80;4.93;;;24.90;47.10;;;;;;5002295;28;20933;-80
2021/05/31 08:32:24;;;;;;;10.17;5.03;;;24.80;46.80;;;;;;5000386;28;20227;-81
2021/05/31 08:34:53;;;;;;;10.27;4.97;;;24.80;47.30;;;;;;4992974;28;20230;-79
2021/05/31 08:37:24;;;;;;;8.63;4.63;;;24.90;46.40;;;;;;4999151;28;20235;-82
2021/05/31 08:39:53;;;;;;;9.43;5.53;;;24.80;46.40;;;;;;4995510;28;20241;-80
2021/05/31 08:42:22;;;;;;;9.20;5.30;;;24.90;45.90;;;;;;5001017;28;20236;-83
2021/05/31 08:44:50;;;;;;;7.13;4.27;;;24.90;44.80;;;;;;5001208;28;20239;-87
2021/05/31 08:47:19;;;;;;;5.43;4.30;;;24.90;45.90;;;;;;5000585;28;20350;-82
2021/05/31 08:49:47;;;;;;;6.90;4.67;;;24.90;46.20;;;;;;4990501;28;21552;-85
2021/05/31 08:52:17;;;;;;;5.77;4.80;;;24.90;45.90;;;;;;4999651;28;20244;-85
2021/05/31 08:54:43;;;;;;;6.40;4.07;;;24.90;46.10;;;;;;5000782;28;20621;-88
2021/05/31 08:57:10;;;;;;;5.93;3.70;;;24.90;46.20;;;;;;4984946;28;20227;-81
2021/05/31 08:59:37;;;;;;;5.47;4.00;;;24.90;46.40;;;;;;4993989;28;20793;-82
2021/05/31 09:02:04;;;;;;;6.17;4.10;;;24.90;45.90;;;;;;4990476;28;20421;-88
2021/05/31 09:04:31;;;;;;;6.07;4.17;;;25.00;46.30;;;;;;4996831;28;20777;-84
2021/05/31 09:06:59;;;;;;;6.00;3.63;;;25.00;46.50;;;;;;4998617;28;20237;-81
2021/05/31 09:09:39;;;;;;;4.77;3.73;;;25.00;46.50;;;;;;4999479;28;20816;-85
2021/05/31 09:12:08;;;;;;;5.63;3.67;;;25.00;46.60;;;;;;5002719;28;20223;-82
2021/05/31 09:14:36;;;;;;;9.23;4.53;;;25.00;46.40;;;;;;5001891;28;20259;-84
2021/05/31 09:17:04;;;;;;;7.97;4.57;;;25.10;45.20;;;;;;5002432;28;20224;-83
2021/05/31 09:19:35;;;;;;;6.90;4.70;;;25.10;44.10;;;;;;4994166;28;20270;-87
2021/05/31 09:22:04;;;;;;;5.93;3.87;;;25.10;44.40;;;;;;4987592;28;20219;-89
2021/05/31 09:24:31;;;;;;;7.37;4.17;;;25.10;44.90;;;;;;4980359;28;20299;-82
2021/05/31 09:27:01;;;;;;;9.23;3.90;;;25.20;44.90;;;;;;4989667;28;20241;-82
2021/05/31 09:29:29;;;;;;;8.03;3.67;;;25.20;44.60;;;;;;4999837;28;20231;-82
2021/05/31 09:32:04;;;;;;;5.53;3.43;;;25.20;44.70;;;;;;4993653;28;20228;-79
2021/05/31 09:34:32;;;;;;;7.27;3.43;;;25.20;45.40;;;;;;4995546;28;20227;-85
2021/05/31 09:37:02;;;;;;;6.97;3.57;;;25.20;45.40;;;;;;5000447;28;20211;-86
2021/05/31 09:39:37;;;;;;;4.50;3.27;;;25.20;44.60;;;;;;4984808;28;21066;-83
2021/05/31 09:42:14;;;;;;;6.33;3.50;;;25.20;45.30;;;;;;4998438;28;20277;-86
2021/05/31 09:45:06;;;;;;;5.43;3.13;;;25.20;43.60;;;;;;4980447;28;20223;-82
2021/05/31 09:47:35;;;;;;;3.93;3.50;;;25.30;45.00;;;;;;4981691;28;20740;-84
2021/05/31 09:50:07;;;;;;;4.07;3.03;;;25.30;45.00;;;;;;4997525;28;20251;-80
2021/05/31 09:52:35;;;;;;;7.87;3.07;;;25.30;44.60;;;;;;4996016;28;20223;-84
2021/05/31 09:55:05;;;;;;;4.90;3.40;;;25.30;45.40;;;;;;4988207;28;20239;-82
2021/05/31 09:57:38;;;;;;;4.80;2.80;;;25.30;45.00;;;;;;4978914;28;21054;-87
2021/05/31 10:00:10;;;;;;;3.30;3.00;;;25.30;45.40;;;;;;4988632;28;20258;-91
2021/05/31 10:02:51;;;;;;;6.23;3.17;;;25.40;44.90;;;;;;4997655;28;20311;-86
2021/05/31 10:05:50;;;;;;;4.70;3.50;;;25.40;45.40;;;;;;5001934;28;20211;-86
2021/05/31 10:10:55;;;;;;;3.30;2.83;;;25.50;45.20;;;;;;4997194;28;20450;-86
2021/05/31 10:13:31;;;;;;;3.33;3.13;;;25.50;45.50;;;;;;4991502;28;20612;-83
2021/05/31 10:16:02;;;;;;;5.47;3.60;;;25.50;46.00;;;;;;4993512;28;20230;-81
2021/05/31 10:18:30;;;;;;;7.13;4.03;;;25.50;44.60;;;;;;5008299;28;20478;-80
2021/05/31 10:20:59;;;;;;;4.50;3.47;;;25.60;44.80;;;;;;5004839;28;20227;-84
2021/05/31 10:23:26;;;;;;;5.23;3.60;;;25.50;44.90;;;;;;5006247;28;20226;-81
2021/05/31 10:25:58;;;;;;;6.23;3.83;;;25.40;44.20;;;;;;5002999;28;20660;-81
2021/05/31 10:28:33;;;;;;;8.37;3.83;;;25.40;45.00;;;;;;5001906;28;20231;-82
2021/05/31 10:31:04;;;;;;;6.87;3.60;;;25.30;43.90;;;;;;5007364;28;20444;-82
2021/05/31 10:33:39;;;;;;;4.63;3.63;;;25.20;44.10;;;;;;5003676;28;20227;-83
2021/05/31 10:36:20;;;;;;;5.17;3.60;;;25.10;44.60;;;;;;5006213;28;20226;-84
2021/05/31 10:38:51;;;;;;;4.20;3.80;;;25.10;44.60;;;;;;5001403;28;20317;-84
2021/05/31 10:41:25;;;;;;;7.13;3.80;;;25.00;44.80;;;;;;5000335;28;20678;-83
2021/05/31 10:43:55;;;;;;;5.07;3.80;;;24.90;44.60;;;;;;5004560;28;20219;-83
2021/05/31 10:46:33;;;;;;;4.53;3.67;;;25.00;43.90;;;;;;5005050;28;20224;-82
2021/05/31 10:49:03;;;;;;;3.87;3.47;;;24.90;44.40;;;;;;4998884;28;20227;-82
2021/05/31 10:51:39;;;;;;;4.40;3.40;;;24.90;45.10;;;;;;5004183;28;20211;-83
2021/05/31 10:54:15;;;;;;;4.73;3.47;;;24.90;45.10;;;;;;5003226;28;20246;-80
2021/05/31 10:56:43;;;;;;;6.73;4.03;;;24.90;44.50;;;;;;4994722;28;20238;-81
2021/05/31 10:59:19;;;;;;;6.30;4.30;;;24.90;43.20;;;;;;5007102;28;20863;-81
2021/05/31 11:01:46;;;;;;;8.23;3.90;;;24.90;44.60;;;;;;5008113;28;20342;-83
2021/05/31 11:04:19;;;;;;;8.13;4.60;;;24.90;44.50;;;;;;4990301;28;20239;-83
2021/05/31 11:06:48;;;;;;;6.43;4.10;;;25.00;44.10;;;;;;5009729;28;20824;-80
2021/05/31 11:09:34;;;;;;;5.33;3.90;;;25.00;44.00;;;;;;5003768;28;20228;-79
2021/05/31 11:12:05;;;;;;;5.97;3.90;;;25.00;45.10;;;;;;4993874;28;20227;-80
2021/05/31 11:14:43;;;;;;;5.90;4.00;;;25.00;44.80;;;;;;5003926;28;20239;-81
2021/05/31 11:17:12;;;;;;;7.10;4.27;;;25.00;45.20;;;;;;5004257;28;20311;-80
2021/05/31 11:19:48;;;;;;;4.80;3.60;;;25.10;45.10;;;;;;5003353;28;20231;-80
2021/05/31 11:22:20;;;;;;;4.43;3.67;;;25.20;45.00;;;;;;5001885;28;21187;-82
2021/05/31 11:24:51;;;;;;;4.70;3.60;;;25.20;45.50;;;;;;5007829;28;20251;-81
2021/05/31 11:27:23;;;;;;;4.10;3.33;;;25.20;45.80;;;;;;5004830;28;20219;-82
2021/05/31 11:29:53;;;;;;;3.80;3.50;;;25.20;46.00;;;;;;4992910;28;20212;-80
2021/05/31 11:32:26;;;;;;;5.17;3.80;;;25.30;44.90;;;;;;5004708;28;20227;-82
2021/05/31 11:35:01;;;;;;;4.47;3.53;;;25.40;44.40;;;;;;5006249;28;20258;-81
2021/05/31 11:37:38;;;;;;;4.10;3.70;;;25.40;44.50;;;;;;4994542;28;20734;-81
2021/05/31 11:40:36;;;;;;;5.07;3.60;;;25.50;44.20;;;;;;4989558;28;20223;-82
2021/05/31 11:43:17;;;;;;;4.47;3.50;;;25.50;45.20;;;;;;4985185;28;20223;-85
2021/05/31 11:45:46;;;;;;;5.73;3.77;;;25.60;47.90;;;;;;5008922;28;20633;-86
2021/05/31 11:48:17;;;;;;;5.20;3.50;;;25.60;48.00;;;;;;5007469;28;20258;-83
2021/05/31 11:50:49;;;;;;;5.90;4.17;;;25.70;48.30;;;;;;5007719;28;20659;-84
2021/05/31 11:53:21;;;;;;;4.40;3.37;;;25.80;48.20;;;;;;5006194;28;20927;-81
2021/05/31 11:55:48;;;;;;;6.00;3.73;;;26.00;48.30;;;;;;5005794;28;20230;-82
2021/05/31 11:58:17;;;;;;;5.67;3.77;;;26.00;47.40;;;;;;5008067;28;20295;-84
2021/05/31 12:00:44;;;;;;;3.53;3.23;;;26.10;47.80;;;;;;5008396;28;20295;-84
2021/05/31 12:03:27;;;;;;;5.83;3.80;;;26.10;47.90;;;;;;5002379;28;20227;-86
2021/05/31 12:05:54;;;;;;;4.53;3.63;;;26.20;47.20;;;;;;4976047;28;20238;-80
2021/05/31 12:08:23;;;;;;;4.97;3.77;;;26.30;47.20;;;;;;5003400;28;20309;-78
2021/05/31 12:10:51;;;;;;;5.97;3.97;;;26.30;47.00;;;;;;5000406;28;20254;-80
2021/05/31 12:13:29;;;;;;;4.33;3.93;;;26.40;47.20;;;;;;5006143;28;20232;-82
2021/05/31 12:15:55;;;;;;;4.63;4.07;;;26.40;46.70;;;;;;5005501;28;20238;-86
2021/05/31 12:18:25;;;;;;;6.43;4.00;;;26.50;46.80;;;;;;5005091;28;20231;-83
2021/05/31 12:21:00;;;;;;;6.13;3.77;;;26.50;47.10;;;;;;5001770;28;20235;-82
2021/05/31 12:23:28;;;;;;;3.83;3.43;;;26.60;47.80;;;;;;5002310;28;20597;-80
2021/05/31 12:26:00;;;;;;;4.47;3.60;;;26.60;47.20;;;;;;5000311;28;20224;-81
2021/05/31 12:28:34;;;;;;;4.97;3.60;;;26.60;47.40;;;;;;4996979;28;20239;-79
2021/05/31 12:31:02;;;;;;;5.00;3.27;;;26.70;47.30;;;;;;5003344;28;20248;-81
2021/05/31 12:33:37;;;;;;;6.77;3.17;;;26.70;46.70;;;;;;4997923;28;20785;-80
2021/05/31 12:36:04;;;;;;;5.63;3.90;;;26.70;46.70;;;;;;4994818;28;20655;-81
2021/05/31 12:38:31;;;;;;;4.20;3.63;;;26.70;45.50;;;;;;4994386;28;20647;-80
2021/05/31 12:40:59;;;;;;;6.80;3.87;;;26.70;45.10;;;;;;4998198;28;20711;-80
2021/05/31 12:43:34;;;;;;;10.20;3.33;;;26.70;44.60;;;;;;4993525;28;20236;-81
2021/05/31 12:46:15;;;;;;;8.87;3.30;;;26.70;45.90;;;;;;4990776;28;20226;-78
2021/05/31 12:48:42;;;;;;;4.63;3.73;;;26.70;45.90;;;;;;4999536;28;20231;-79
2021/05/31 12:51:14;;;;;;;5.20;4.00;;;26.70;44.50;;;;;;4991010;28;20240;-79
2021/05/31 12:53:44;;;;;;;6.10;4.20;;;26.80;44.40;;;;;;4998588;28;20289;-78
2021/05/31 12:56:14;;;;;;;8.17;3.57;;;26.80;44.20;;;;;;4992698;28;20250;-80
2021/05/31 12:59:11;;;;;;;5.67;3.40;;;26.80;45.00;;;;;;4984087;28;22884;-79
2021/05/31 13:01:41;;;;;;;5.50;3.33;;;26.80;45.90;;;;;;5001172;28;20224;-77
2021/05/31 13:04:08;;;;;;;4.07;3.60;;;26.80;45.90;;;;;;4997606;28;20243;-78
2021/05/31 13:06:37;;;;;;;4.30;3.53;;;26.90;45.70;;;;;;5012086;28;20593;-78
2021/05/31 13:09:06;;;;;;;5.90;4.10;;;26.90;44.50;;;;;;4998449;28;20581;-79
2021/05/31 13:11:43;;;;;;;7.50;4.10;;;26.90;44.20;;;;;;4998444;28;20722;-75